createdAt,value
2019-02-09T00:06:44.397Z,49.60
2019-02-09T00:33:42.264Z,50.30
2019-02-09T00:46:49.393Z,49.50
2019-02-09T01:13:00.711Z,49.20
2019-02-09T01:26:07.861Z,49.10
2019-02-09T01:39:15.078Z,49.00
2019-02-09T01:52:22.287Z,48.90
2019-02-09T02:05:29.438Z,48.90
2019-02-09T02:18:36.651Z,48.80
2019-02-09T02:32:00.440Z,48.70
2019-02-09T02:45:23.194Z,48.70
2019-02-09T02:58:45.999Z,48.70
2019-02-09T03:12:08.847Z,48.60
2019-02-09T03:25:31.733Z,48.60
2019-02-09T03:38:54.505Z,48.60
2019-02-09T03:52:17.306Z,48.50
2019-02-09T04:05:40.128Z,48.50
2019-02-09T04:19:02.877Z,48.40
2019-02-09T04:46:01.004Z,48.40
2019-02-09T04:59:08.154Z,48.30
2019-02-09T05:12:15.455Z,48.30
2019-02-09T05:25:22.664Z,48.10
2019-02-09T05:38:29.884Z,48.30
2019-02-09T05:51:53.464Z,48.30
2019-02-09T06:05:16.286Z,48.20
2019-02-09T06:18:39.092Z,48.20
2019-02-09T06:32:01.923Z,48.10
2019-02-09T06:45:24.748Z,48.20
2019-02-09T06:58:47.530Z,48.00
2019-02-09T07:25:12.076Z,47.90
2019-02-09T07:38:19.250Z,48.10
2019-02-09T07:51:26.485Z,47.70
2019-02-09T08:04:33.628Z,47.80
2019-02-09T08:17:40.858Z,48.40
2019-02-09T08:30:48.002Z,48.20
2019-02-09T08:44:11.870Z,47.70
2019-02-09T08:57:34.825Z,47.80
2019-02-09T09:10:57.421Z,48.50
2019-02-09T09:24:20.258Z,48.90
2019-02-09T09:37:43.159Z,49.40
2019-02-09T09:51:05.878Z,50.00
2019-02-09T10:04:28.756Z,50.00
2019-02-09T10:17:51.559Z,50.70
2019-02-09T10:31:14.317Z,50.60
2019-02-09T10:44:37.149Z,50.60
2019-02-09T11:11:01.716Z,50.30
2019-02-09T11:24:08.965Z,50.70
2019-02-09T11:37:16.242Z,49.90
2019-02-09T11:50:23.427Z,49.80
2019-02-09T12:03:30.671Z,49.70
2019-02-09T12:16:37.884Z,49.40
2019-02-09T12:30:01.390Z,49.20
2019-02-09T12:43:24.175Z,49.00
2019-02-09T12:56:47.054Z,49.10
2019-02-09T13:10:09.835Z,49.70
2019-02-09T13:23:32.736Z,49.60
2019-02-09T13:36:55.460Z,51.90
2019-02-09T13:50:18.266Z,52.60
2019-02-09T14:03:46.534Z,52.90
2019-02-09T14:17:03.906Z,53.60
2019-02-09T14:56:34.931Z,53.40
2019-02-09T15:22:47.774Z,52.30
2019-02-09T15:35:54.942Z,53.10
2019-02-09T15:49:02.198Z,53.50
2019-02-09T16:02:09.471Z,53.50
2019-02-09T16:15:16.702Z,53.80
2019-02-09T16:28:24.985Z,53.80
2019-02-09T16:41:47.473Z,53.80
2019-02-09T16:55:10.188Z,53.50
2019-02-09T17:08:33.222Z,53.10
2019-02-09T17:21:55.854Z,53.80
2019-02-09T17:35:18.677Z,54.60
2019-02-09T17:48:41.516Z,56.20
2019-02-09T18:02:04.317Z,59.30
2019-02-09T18:15:27.154Z,59.30
2019-02-09T18:28:50.074Z,59.00
2019-02-09T18:42:12.720Z,57.70
2019-02-09T18:55:35.599Z,57.90
2019-02-09T19:08:58.554Z,58.20
2019-02-09T19:22:21.292Z,56.80
2019-02-09T19:35:44.030Z,53.10
2019-02-09T19:49:06.810Z,53.10
2019-02-09T20:16:04.811Z,52.00
2019-02-09T20:29:11.955Z,52.70
2019-02-09T20:42:19.092Z,53.00
2019-02-09T20:55:26.295Z,53.10
2019-02-09T21:08:33.442Z,54.00
2019-02-09T21:21:57.453Z,54.30
2019-02-09T21:35:20.200Z,54.20
2019-02-09T21:48:43.066Z,54.20
2019-02-09T22:02:05.913Z,54.20
2019-02-09T22:15:28.715Z,54.00
2019-02-09T22:28:51.453Z,54.60
2019-02-09T22:42:14.243Z,54.80
2019-02-09T22:55:37.069Z,54.90
2019-02-09T23:08:59.907Z,54.50
2019-02-09T23:22:22.718Z,54.20
2019-02-09T23:35:45.576Z,54.00
2019-02-09T23:49:08.363Z,53.90
